createdAt,value
2019-02-16T00:06:11.037Z,26.00
2019-02-16T00:11:34.727Z,24.00
2019-02-16T00:14:25.743Z,24.00
2019-02-16T00:17:14.843Z,26.67
2019-02-16T00:19:44.968Z,26.00
2019-02-16T00:22:34.004Z,23.33
2019-02-16T00:25:23.114Z,23.00
2019-02-16T00:27:53.473Z,25.33
2019-02-16T00:33:26.930Z,28.67
2019-02-16T00:35:57.008Z,30.00
2019-02-16T00:38:26.984Z,30.33
2019-02-16T00:41:16.064Z,28.67
2019-02-16T00:43:46.212Z,26.33
2019-02-16T00:46:16.174Z,28.67
2019-02-16T00:49:39.976Z,28.00
2019-02-16T00:51:57.393Z,25.33
2019-02-16T00:54:46.802Z,26.33
2019-02-16T00:57:19.171Z,26.33
2019-02-16T00:59:49.193Z,20.67
2019-02-16T01:02:38.822Z,24.33
2019-02-16T01:05:40.377Z,25.00
2019-02-16T01:07:59.806Z,23.33
2019-02-16T01:13:37.666Z,24.00
2019-02-16T01:16:26.750Z,24.00
2019-02-16T01:18:59.484Z,21.67
2019-02-16T01:21:49.671Z,26.00
2019-02-16T01:24:19.786Z,21.67
2019-02-16T01:27:11.352Z,24.67
2019-02-16T01:30:00.165Z,23.67
2019-02-16T01:32:49.322Z,21.00
2019-02-16T01:35:38.375Z,21.67
2019-02-16T01:38:27.517Z,19.00
2019-02-16T01:41:17.293Z,27.50
2019-02-16T01:47:40.789Z,21.67
2019-02-16T01:50:19.662Z,19.67
2019-02-16T01:53:08.341Z,20.33
2019-02-16T01:59:10.842Z,19.00
2019-02-16T02:01:59.890Z,24.00
2019-02-16T02:04:29.945Z,20.67
2019-02-16T02:07:02.197Z,27.00
2019-02-16T02:09:51.135Z,19.67
2019-02-16T02:12:21.259Z,21.67
2019-02-16T02:14:51.772Z,19.00
2019-02-16T02:17:22.148Z,20.33
2019-02-16T02:20:23.092Z,21.00
2019-02-16T02:25:43.546Z,23.67
2019-02-16T02:28:13.618Z,25.33
2019-02-16T02:31:02.776Z,23.67
2019-02-16T02:33:51.879Z,23.67
2019-02-16T02:39:23.585Z,18.67
2019-02-16T02:45:24.191Z,20.33
2019-02-16T02:47:54.254Z,25.33
2019-02-16T02:53:04.636Z,22.67
2019-02-16T02:55:53.600Z,23.67
2019-02-16T02:58:42.616Z,23.67
2019-02-16T03:01:12.647Z,21.67
2019-02-16T03:03:42.736Z,23.67
2019-02-16T03:09:39.676Z,22.33
2019-02-16T03:12:28.791Z,23.33
2019-02-16T03:18:03.600Z,22.00
2019-02-16T03:20:33.761Z,22.00
2019-02-16T03:23:23.240Z,26.67
2019-02-16T03:26:32.241Z,24.50
2019-02-16T03:29:27.353Z,23.67
2019-02-16T03:32:35.474Z,23.67
2019-02-16T03:35:43.625Z,25.33
2019-02-16T03:38:51.738Z,24.00
2019-02-16T03:41:21.719Z,25.33
2019-02-16T03:43:51.723Z,22.00
2019-02-16T03:49:23.366Z,26.67
2019-02-16T03:51:53.518Z,26.33
2019-02-16T03:54:24.535Z,28.00
2019-02-16T03:57:13.525Z,22.67
2019-02-16T03:59:43.501Z,23.00
2019-02-16T04:02:13.615Z,25.00
2019-02-16T04:04:43.961Z,26.67
2019-02-16T04:07:13.913Z,21.33
2019-02-16T04:09:43.868Z,21.67
2019-02-16T04:12:13.926Z,23.67
2019-02-16T04:17:52.593Z,20.67
2019-02-16T04:20:22.673Z,23.33
2019-02-16T04:22:52.620Z,21.00
2019-02-16T04:25:41.652Z,21.33
2019-02-16T04:28:11.715Z,24.33
2019-02-16T04:30:41.788Z,23.67
2019-02-16T04:33:30.775Z,21.67
2019-02-16T04:36:03.359Z,21.00
2019-02-16T04:38:33.323Z,19.67
2019-02-16T04:41:22.294Z,18.33
2019-02-16T04:46:53.613Z,20.33
2019-02-16T04:49:23.648Z,18.00
2019-02-16T04:52:12.291Z,18.00
2019-02-16T04:57:45.605Z,20.00
2019-02-16T05:00:34.681Z,20.67
2019-02-16T05:03:23.797Z,20.00
2019-02-16T05:05:53.765Z,22.00
2019-02-16T05:09:03.946Z,18.00
2019-02-16T05:11:33.920Z,21.33
2019-02-16T05:14:22.689Z,20.00
2019-02-16T05:16:54.528Z,20.00
2019-02-16T05:19:43.551Z,16.67
2019-02-16T05:22:13.612Z,18.00
2019-02-16T05:27:35.864Z,20.67
2019-02-16T05:30:06.375Z,18.00
2019-02-16T05:32:55.437Z,16.67
2019-02-16T05:35:25.415Z,18.00
2019-02-16T05:40:37.470Z,16.00
2019-02-16T05:43:28.263Z,15.33
2019-02-16T05:45:58.247Z,16.00
2019-02-16T05:48:47.276Z,17.33
2019-02-16T05:51:17.138Z,16.00
2019-02-16T05:53:47.176Z,16.67
2019-02-16T05:56:17.126Z,16.00
2019-02-16T05:59:08.036Z,14.67
2019-02-16T06:01:58.991Z,20.00
2019-02-16T06:04:48.197Z,18.67
2019-02-16T06:07:18.142Z,16.67
2019-02-16T06:09:48.238Z,16.67
2019-02-16T06:12:37.233Z,18.00
2019-02-16T06:18:18.665Z,15.33
2019-02-16T06:20:51.204Z,14.67
2019-02-16T06:23:21.212Z,16.00
2019-02-16T06:29:29.906Z,18.67
2019-02-16T06:38:20.697Z,19.33
2019-02-16T06:40:50.571Z,16.00
2019-02-16T06:43:20.445Z,18.67
2019-02-16T06:46:09.397Z,17.33
2019-02-16T06:48:58.220Z,16.00
2019-02-16T06:51:28.378Z,14.67
2019-02-16T06:54:17.432Z,16.00
2019-02-16T06:59:53.319Z,19.33
2019-02-16T07:05:08.697Z,22.00
2019-02-16T07:10:20.271Z,20.00
2019-02-16T07:13:03.090Z,21.33
2019-02-16T07:19:01.437Z,20.00
2019-02-16T07:24:14.001Z,22.00
2019-02-16T07:27:03.024Z,22.00
2019-02-16T07:29:32.930Z,25.00
2019-02-16T07:34:51.772Z,22.67
2019-02-16T07:37:40.523Z,23.33
2019-02-16T07:40:10.437Z,22.67
2019-02-16T07:43:01.510Z,21.33
2019-02-16T07:45:51.415Z,25.75
2019-02-16T07:51:41.430Z,22.33
2019-02-16T07:54:30.081Z,23.00
2019-02-16T07:57:39.509Z,24.33
2019-02-16T08:00:47.304Z,22.00
2019-02-16T08:06:57.321Z,23.67
2019-02-16T08:09:47.758Z,25.33
2019-02-16T08:12:56.328Z,28.00
2019-02-16T08:16:05.032Z,22.00
2019-02-16T08:19:12.873Z,27.00
2019-02-16T08:22:04.573Z,30.00
2019-02-16T08:25:12.372Z,30.33
2019-02-16T08:28:01.118Z,26.33
2019-02-16T08:31:09.832Z,35.50
2019-02-16T08:33:59.329Z,42.75
2019-02-16T08:36:51.333Z,36.67
2019-02-16T08:39:40.826Z,37.00
2019-02-16T08:42:49.397Z,36.00
2019-02-16T08:45:38.946Z,37.75
2019-02-16T08:48:47.550Z,37.00
2019-02-16T08:51:24.395Z,32.00
2019-02-16T08:54:05.827Z,37.50
2019-02-16T08:57:11.348Z,33.33
2019-02-16T09:00:07.356Z,36.50
2019-02-16T09:06:23.500Z,33.00
2019-02-16T09:09:13.006Z,34.25
2019-02-16T09:12:21.584Z,37.00
2019-02-16T09:15:12.284Z,38.50
2019-02-16T09:18:13.994Z,35.25
2019-02-16T09:21:03.527Z,41.00
2019-02-16T09:23:59.186Z,40.50
2019-02-16T09:26:44.818Z,39.67
2019-02-16T09:29:36.606Z,39.00
2019-02-16T09:32:26.071Z,45.00
2019-02-16T09:35:36.136Z,47.00
2019-02-16T09:38:49.973Z,48.00
2019-02-16T09:41:58.617Z,44.50
2019-02-16T09:44:48.250Z,47.75
2019-02-16T09:47:38.114Z,49.00
2019-02-16T09:53:37.544Z,53.50
2019-02-16T09:56:27.016Z,55.00
2019-02-16T09:59:35.660Z,51.75
2019-02-16T10:02:39.487Z,52.00
2019-02-16T10:05:48.057Z,47.00
2019-02-16T10:08:56.690Z,46.75
2019-02-16T10:11:57.059Z,53.50
2019-02-16T10:18:09.397Z,52.00
2019-02-16T10:20:59.188Z,56.50
2019-02-16T10:24:07.759Z,49.75
2019-02-16T10:27:38.984Z,57.50
2019-02-16T10:30:27.203Z,45.00
2019-02-16T10:33:35.020Z,52.33
2019-02-16T10:36:43.650Z,48.50
2019-02-16T10:39:33.260Z,54.25
2019-02-16T10:42:12.438Z,51.50
2019-02-16T10:45:02.043Z,53.75
2019-02-16T10:48:02.586Z,56.00
2019-02-16T10:54:41.161Z,53.25
2019-02-16T11:01:05.604Z,51.00
2019-02-16T11:03:54.626Z,52.00
2019-02-16T11:07:04.298Z,54.00
2019-02-16T11:09:59.569Z,55.00
2019-02-16T11:12:48.696Z,55.33
2019-02-16T11:15:30.503Z,52.50
2019-02-16T11:18:22.492Z,54.25
2019-02-16T11:21:27.946Z,53.50
2019-02-16T11:24:22.189Z,55.75
2019-02-16T11:27:11.675Z,54.00
2019-02-16T11:30:05.725Z,56.75
2019-02-16T11:32:49.163Z,57.00
2019-02-16T11:35:53.511Z,53.75
2019-02-16T11:38:44.001Z,53.50
2019-02-16T11:41:53.034Z,55.00
2019-02-16T11:44:57.811Z,54.00
2019-02-16T11:48:07.685Z,56.50
2019-02-16T11:51:21.080Z,53.75
2019-02-16T11:54:27.185Z,56.75
2019-02-16T11:57:17.446Z,56.00
2019-02-16T12:00:40.174Z,55.00
2019-02-16T12:03:12.952Z,54.00
2019-02-16T12:09:13.684Z,56.75
2019-02-16T12:12:04.319Z,56.75
2019-02-16T12:18:27.712Z,55.00
2019-02-16T12:21:18.003Z,58.00
2019-02-16T12:24:12.829Z,55.00
2019-02-16T12:39:20.045Z,56.00
2019-02-16T12:42:10.726Z,57.50
2019-02-16T12:44:52.816Z,59.00
2019-02-16T12:48:01.263Z,61.33
2019-02-16T12:51:00.225Z,54.75
2019-02-16T12:53:59.950Z,60.00
2019-02-16T12:56:42.088Z,55.00
2019-02-16T12:59:25.855Z,59.50
2019-02-16T13:02:37.171Z,52.50
2019-02-16T13:05:50.437Z,53.50
2019-02-16T13:08:43.085Z,55.75
2019-02-16T13:11:42.352Z,53.00
2019-02-16T13:15:03.167Z,53.50
2019-02-16T13:17:45.122Z,49.75
2019-02-16T13:20:56.334Z,52.75
2019-02-16T13:23:46.176Z,53.75
2019-02-16T13:26:36.622Z,52.50
2019-02-16T13:29:46.445Z,49.00
2019-02-16T13:35:55.010Z,52.00
2019-02-16T13:38:46.850Z,49.75
2019-02-16T13:41:57.171Z,51.00
2019-02-16T13:44:47.421Z,49.50
2019-02-16T13:47:41.822Z,49.00
2019-02-16T13:50:22.978Z,48.50
2019-02-16T13:54:04.543Z,51.50
2019-02-16T13:56:40.398Z,49.25
2019-02-16T14:03:09.664Z,49.00
2019-02-16T14:06:21.719Z,48.25
2019-02-16T14:09:15.709Z,50.50
2019-02-16T14:12:05.623Z,50.50
2019-02-16T14:15:11.102Z,49.25
2019-02-16T14:18:01.972Z,49.75
2019-02-16T14:20:34.371Z,47.00
2019-02-16T14:26:07.830Z,48.50
2019-02-16T14:28:41.062Z,49.50
2019-02-16T14:31:33.076Z,46.50
2019-02-16T14:34:28.471Z,47.00
2019-02-16T14:40:23.264Z,49.00
2019-02-16T14:46:38.288Z,47.50
2019-02-16T14:51:58.975Z,52.00
2019-02-16T14:54:35.405Z,52.75
2019-02-16T14:57:11.075Z,54.75
2019-02-16T14:59:43.669Z,50.75
2019-02-16T15:02:16.804Z,45.00
2019-02-16T15:04:48.585Z,48.75
2019-02-16T15:07:39.569Z,51.00
2019-02-16T15:10:14.708Z,49.50
2019-02-16T15:12:48.243Z,48.00
2019-02-16T15:15:40.159Z,49.25
2019-02-16T15:18:11.532Z,48.75
2019-02-16T15:20:43.508Z,49.75
2019-02-16T15:23:17.171Z,48.25
2019-02-16T15:26:00.513Z,51.00
2019-02-16T15:28:26.036Z,49.00
2019-02-16T15:30:57.595Z,48.50
2019-02-16T15:33:47.843Z,49.75
2019-02-16T15:36:40.723Z,49.25
2019-02-16T15:39:19.863Z,49.50
2019-02-16T15:41:52.632Z,49.50
2019-02-16T15:44:23.839Z,49.25
2019-02-16T15:46:55.706Z,50.75
2019-02-16T15:49:48.432Z,49.25
2019-02-16T15:52:22.088Z,47.50
2019-02-16T15:55:44.952Z,48.50
2019-02-16T15:58:06.195Z,48.33
2019-02-16T16:00:39.565Z,51.00
2019-02-16T16:03:30.317Z,52.25
2019-02-16T16:09:31.007Z,51.25
2019-02-16T16:12:39.902Z,51.00
2019-02-16T16:15:31.240Z,52.75
2019-02-16T16:18:37.056Z,53.00
2019-02-16T16:21:14.892Z,53.50
2019-02-16T16:24:27.006Z,51.50
2019-02-16T16:27:21.222Z,54.00
2019-02-16T16:33:54.862Z,53.00
2019-02-16T16:37:07.175Z,51.00
2019-02-16T16:40:16.326Z,54.00
2019-02-16T16:43:11.550Z,50.75
2019-02-16T16:46:02.349Z,56.00
2019-02-16T16:49:13.796Z,59.25
2019-02-16T16:52:24.424Z,57.00
2019-02-16T16:58:45.102Z,57.25
2019-02-16T17:01:39.052Z,61.00
2019-02-16T17:04:29.226Z,58.25
2019-02-16T17:13:53.574Z,60.50
2019-02-16T17:17:02.395Z,58.50
2019-02-16T17:26:16.598Z,56.00
2019-02-16T17:29:07.567Z,55.75
2019-02-16T17:32:19.571Z,58.00
2019-02-16T17:35:09.170Z,60.00
2019-02-16T17:38:18.336Z,55.75
2019-02-16T17:41:46.366Z,56.00
2019-02-16T17:44:37.845Z,56.50
2019-02-16T17:47:27.248Z,52.50
2019-02-16T17:50:07.645Z,53.50
2019-02-16T17:52:58.919Z,56.50
2019-02-16T17:55:56.742Z,56.75
2019-02-16T17:58:41.108Z,57.25
2019-02-16T18:04:58.359Z,55.00
2019-02-16T18:08:03.284Z,51.50
2019-02-16T18:10:56.639Z,52.50
2019-02-16T18:14:04.821Z,53.67
2019-02-16T18:16:55.892Z,50.25
2019-02-16T18:20:05.612Z,51.25
2019-02-16T18:26:12.993Z,50.25
2019-02-16T18:28:57.720Z,50.00
2019-02-16T18:34:45.503Z,53.50
2019-02-16T18:41:23.179Z,48.50
2019-02-16T18:47:42.935Z,53.25
2019-02-16T18:51:05.065Z,48.50
2019-02-16T18:53:44.911Z,52.25
2019-02-16T18:56:38.395Z,52.00
2019-02-16T18:59:30.523Z,44.00
2019-02-16T19:02:39.837Z,48.25
2019-02-16T19:05:30.095Z,43.75
2019-02-16T19:08:38.924Z,49.00
2019-02-16T19:11:31.259Z,44.00
2019-02-16T19:14:45.651Z,49.00
2019-02-16T19:17:35.725Z,43.00
2019-02-16T19:20:46.863Z,47.50
2019-02-16T19:23:54.148Z,46.75
2019-02-16T19:26:45.628Z,42.00
2019-02-16T19:29:35.204Z,50.00
2019-02-16T19:32:43.187Z,51.50
2019-02-16T19:35:36.377Z,45.50
2019-02-16T19:38:28.190Z,53.00
2019-02-16T19:41:09.315Z,45.25
2019-02-16T19:44:00.220Z,61.25
2019-02-16T19:46:50.520Z,47.50
2019-02-16T19:49:59.855Z,52.50
2019-02-16T19:52:52.310Z,59.75
2019-02-16T20:02:12.425Z,44.00
2019-02-16T20:05:21.860Z,39.00
2019-02-16T20:08:30.048Z,47.67
2019-02-16T20:11:40.477Z,51.25
2019-02-16T20:15:14.880Z,51.00
2019-02-16T20:18:27.693Z,47.50
2019-02-16T20:24:31.079Z,43.50
2019-02-16T20:27:54.280Z,46.00
2019-02-16T20:30:34.645Z,42.75
2019-02-16T20:33:43.557Z,45.00
2019-02-16T20:36:40.828Z,56.50
2019-02-16T20:39:34.773Z,51.50
2019-02-16T20:45:53.216Z,48.00
2019-02-16T20:49:01.377Z,45.00
2019-02-16T20:52:27.347Z,53.50
2019-02-16T20:58:25.570Z,38.50
2019-02-16T21:01:15.218Z,50.67
2019-02-16T21:04:05.989Z,49.00
2019-02-16T21:06:56.384Z,52.75
2019-02-16T21:10:20.064Z,47.00
2019-02-16T21:13:12.638Z,53.50
2019-02-16T21:16:29.326Z,52.25
2019-02-16T21:19:38.480Z,47.50
2019-02-16T21:23:03.829Z,54.67
2019-02-16T21:32:12.003Z,57.33
2019-02-16T21:35:13.690Z,53.00
2019-02-16T21:38:19.948Z,57.75
2019-02-16T21:41:02.393Z,56.00
2019-02-16T21:44:04.248Z,53.00
2019-02-16T21:50:58.479Z,57.50
2019-02-16T21:56:49.092Z,61.25
2019-02-16T22:00:00.775Z,59.00
2019-02-16T22:02:58.315Z,53.00
2019-02-16T22:05:48.538Z,58.33
2019-02-16T22:08:59.494Z,52.50
2019-02-16T22:11:50.148Z,59.00
2019-02-16T22:14:28.862Z,63.00
2019-02-16T22:17:44.881Z,57.50
2019-02-16T22:20:17.403Z,59.50
2019-02-16T22:23:09.615Z,61.00
2019-02-16T22:26:11.798Z,57.00
2019-02-16T22:29:02.854Z,59.25
2019-02-16T22:32:17.171Z,59.00
2019-02-16T22:35:26.083Z,63.00
2019-02-16T22:38:06.361Z,61.00
2019-02-16T22:40:57.970Z,65.50
2019-02-16T22:46:57.145Z,62.50
2019-02-16T22:49:47.379Z,66.75
2019-02-16T22:53:02.107Z,63.25
2019-02-16T22:58:52.843Z,64.25
2019-02-16T23:01:35.136Z,63.50
2019-02-16T23:04:25.021Z,62.75
2019-02-16T23:06:58.170Z,65.25
2019-02-16T23:18:04.454Z,63.50
2019-02-16T23:21:15.827Z,56.75
2019-02-16T23:24:05.862Z,57.50
2019-02-16T23:26:39.006Z,56.75
2019-02-16T23:29:40.743Z,57.50
2019-02-16T23:32:23.839Z,55.50
2019-02-16T23:35:13.629Z,58.00
2019-02-16T23:37:59.029Z,49.75
2019-02-16T23:40:36.382Z,57.50
2019-02-16T23:43:26.298Z,55.50
2019-02-16T23:46:15.434Z,52.00
2019-02-16T23:49:05.375Z,60.00
2019-02-16T23:51:55.211Z,55.50
2019-02-16T23:54:26.051Z,51.75
2019-02-16T23:57:10.895Z,46.00
2019-02-16T23:59:29.337Z,52.50
